Friday, October 24, 2014
09:39 UTC
  |  Log In   |  Register Free
Airport Search:

Mccarley Fld Airport
(U02)

Mccarley Fld Airport Diagram
No Airport Diagram Available

FAA data valid effective September 18, 2014 - November 13, 2014 (unless otherwise noted).

 
 
 
 
 
 
 
 
 
 
 
 
 
 

Current Aviation Weather for Mccarley Fld Airport (U02)

METAR data is unavailable for U02. The nearest METAR location is at KPIH (21 nm SW from U02).

The most recent METAR observation for KPIH was updated at: 0912
METAR Summary (Translated METAR)
KPIH
240853Z 21007KT 10SM BKN120 12/04 A3014 RMK AO2 SLP179 T01170039 51004
(21 nm SW from U02)
KIDA
240853Z AUTO 18010KT 10SM OVC100 12/02 A3014 RMK AO2 SLP180 T01170022 53004
(22 nm NE from U02)
TAF Summary (Translated TAF)
KPIH
240520Z 2406/2506 VRB04KT P6SM OVC180 FM241700 18010KT P6SM SKC FM242100 19010G20KT P6SM FEW080 FM250200 VRB05KT P6SM SKC
KIDA
(42.9 nm NE from KPIH)
240520Z 2406/2506 VRB04KT P6SM SCT120 OVC180 FM241700 19010KT P6SM SKC FM242100 20012G18KT P6SM SKC FM250200 VRB05KT P6SM SKC
  Airport Weather Conditions for U02

Current weather conditions are
not available for U02


The nearest NOAA weather station
is at PIH, (21 nm SW from U02)
  
 Current Weather at PIH
53° F
Mostly Cloudy
Southwest winds at 8.1 mph
PIH NOAA Radar

Pressure: 30.14 in
Humidity: 59%
Wind: Southwest at 8.1 MPH (7 KT)
Dew Point: 39.0°F
Visibility: 10.00 mi


Airport Weather Forecast for U02

Translated METAR and TAF for KPIH
Translated METAR for KPIH (0934 UTC 24 October 2014)
found at http://aviationweather.gov/adds/metars/
 
METAR text: KPIH 240853Z 21007KT 10SM BKN120 12/04 A3014 RMK AO2 SLP179 T01170039 51004
Conditions at: KPIH (POCATELLO , ID, US) observed 0853 UTC 24 October 2014
Temperature: 11.7°C (53°F)
Dewpoint: 3.9°C (39°F) [RH = 59%]
Pressure (altimeter): 30.14 inches Hg (1020.7 mb)
[Sea-level pressure: 1017.9 mb]
Winds: from the SSW (210 degrees) at 8 MPH (7 knots; 3.6 m/s)
Visibility: 10 or more miles (16+ km)
Ceiling: 12000 feet AGL
Clouds: broken clouds at 12000 feet AGL
Weather: no significant weather observed at this time
Translated TAF for KPIH
Forecast for: KPIH (POCATELLO , ID, US)
TAF Text: KPIH 240520Z 2406/2506 VRB04KT P6SM OVC180
Forecast period: 0600 to 1700 UTC 24 October 2014
Forecast type: FROM: standard forecast or significant change
Winds: variable direction winds at 5 MPH (4 knots; 2.1 m/s)
Visibility: 6 or more miles (10+ km)
Ceiling: 18000 feet AGL
Clouds: overcast cloud deck at 18000 feet AGL
Weather: no significant weather forecast for this period
TAF Text: FM241700 18010KT P6SM SKC
Forecast period: 1700 to 2100 UTC 24 October 2014
Forecast type: FROM: standard forecast or significant change
Winds: from the S (180 degrees) at 12 MPH (10 knots; 5.2 m/s)
Visibility: 6 or more miles (10+ km)
Clouds: clear skies
Weather: no significant weather forecast for this period
TAF Text: FM242100 19010G20KT P6SM FEW080
Forecast period: 2100 UTC 24 October 2014 to 0200 UTC 25 October 2014
Forecast type: FROM: standard forecast or significant change
Winds: from the S (190 degrees) at 12 MPH (10 knots; 5.2 m/s)
gusting to 23 MPH (20 knots; 10.4 m/s)
Visibility: 6 or more miles (10+ km)
Clouds: few clouds at 8000 feet AGL
Weather: no significant weather forecast for this period
TAF Text: FM250200 VRB05KT P6SM SKC
Forecast period: 0200 to 0600 UTC 25 October 2014
Forecast type: FROM: standard forecast or significant change
Winds: variable direction winds at 6 MPH (5 knots; 2.6 m/s)
Visibility: 6 or more miles (10+ km)
Clouds: clear skies
Weather: no significant weather forecast for this period

Find All Airport Services Find A Hotel Find A Rental Car Find A Golf Course Find A Restaurant $100 Hamburger



FBO's on the Field
FBO Company Facility Photos Services Transportation Aviation Fuel Prices: Prices include tax
Catering Weather Repair Courtesy Rental Type 100LL JetA JetA+ MOGAS 8087
 
City of Blackfoot

This FBO has not yet been rated
FS:Independent
Last Updated: Oct-15
Login to update fuel prices
SS:
Contact City of BlackfootMore FBO Information
 
Add another FBO Facility Photos Catering Weather Repair Courtesy Rental Type 100LL JetA JetA+ MOGAS 8087
Services Transportation Aviation Fuel Prices: Prices include tax


model-print
model-print
model-print
model-print